Clinton, NC

9:26 AM EST en Enero 26, 2015 (GMT -0500)
Sampson County | Change Station
CLOSE
Current Station
Aeropuerto
Location: Clinton,
Altura: 148 ft
Estaciones meteorológicas cercanas

Alt 148 ft 34.98 °N, 78.36 °W | Updated 11 minutes ago

Overcast
Nublado
45 ° F
Sensación térmica 43 ° F
N
4
Viento Variable Viento desde Oeste

Hoy
Alta -- | Baja -- ° F
--% Posibilidad de precipitaciones
Ayer
Alta -- | Baja -- ° F
Precip. -- pul
7:16 AM 5:35 PM
Creciente, 43% visible
Presión 29.66 pul
Visibilidad 10.0 Millas
Nubes Nublado 9500 ft
Vientos helados 43 ° F
Punto de rocío 42 ° F
Humedad 91%
Precipitaciones 0.00 pul
Espesor de la nieve No disponible.
UV 0 de una escala de 12
Polen 1.60 de una escala de 12
Calidad del aire No disponible.
Flu Activity No disponible.
METAR KCTZ 261415Z AUTO 28003KT 10SM OVC095 07/06 A2966 RMK AO2 T00700056

More Conditions Fewer Conditions

Presión 29.66 pul
Visibilidad 10.0 Millas
Nubes Nublado 9500 ft
Vientos helados 43 ° F
Punto de rocío 42 ° F
Humedad 91%
Precipitaciones 0.00 pul
Espesor de la nieve No disponible.
UV 0 de una escala de 12
Polen 1.60 de una escala de 12
Calidad del aire No disponible.
Flu Activity No disponible.
METAR KCTZ 261415Z AUTO 28003KT 10SM OVC095 07/06 A2966 RMK AO2 T00700056

More Conditions Fewer Conditions

10-Day Weather Forecast

Almanac

Astronomía

Jan. 26, 2015 Salida Puesta
Hora real
Crepúsculo civil
Crepúsculo náutico
Crepúsculo astronómico
Luna
Horas de luz
Horas de luz
Tomorrow will be .
, % of the Moon is Illuminated

Extremos de hoy

Máximos del estado Bajos del estado

Community

WunderPhotos

Upload Photos

1,790,219 ¡fotos cargadas!

WunderBlogs® & News

Nearby

Calidad del aire

  Calidad del aire Índice AQ Contaminante
Not available.

Grosos de nieve

Estación Profundido Altura

Actividad de terremotos

Ciudad Distance Mag. Tiempo y dato
Magnitud mínima muestra es 2,5.

Temperaturas de aguas costeras

Lugar Temperatura

Estaciones meteorológicas cercanas